sensor_id;sensor_type;location;lat;lon;timestamp;P1;durP1;ratioP1;P2;durP2;ratioP2
49948;SDS011;35840;45.982;8.890;2024-01-30T00:00:03;10.57;;;7.28;;
49948;SDS011;35840;45.982;8.890;2024-01-30T00:02:31;11.73;;;5.70;;
49948;SDS011;35840;45.982;8.890;2024-01-30T00:04:59;14.90;;;7.55;;
49948;SDS011;35840;45.982;8.890;2024-01-30T00:07:25;11.30;;;6.68;;
49948;SDS011;35840;45.982;8.890;2024-01-30T00:09:52;12.57;;;6.90;;
49948;SDS011;35840;45.982;8.890;2024-01-30T00:12:19;9.60;;;6.75;;
49948;SDS011;35840;45.982;8.890;2024-01-30T00:14:46;11.73;;;7.15;;
49948;SDS011;35840;45.982;8.890;2024-01-30T00:17:16;11.80;;;6.57;;
49948;SDS011;35840;45.982;8.890;2024-01-30T00:19:43;12.23;;;6.70;;
49948;SDS011;35840;45.982;8.890;2024-01-30T00:22:10;10.60;;;6.30;;
49948;SDS011;35840;45.982;8.890;2024-01-30T00:24:37;14.02;;;6.25;;
49948;SDS011;35840;45.982;8.890;2024-01-30T00:27:04;13.10;;;5.78;;
49948;SDS011;35840;45.982;8.890;2024-01-30T00:29:31;8.80;;;5.93;;
49948;SDS011;35840;45.982;8.890;2024-01-30T00:32:00;7.05;;;4.95;;
49948;SDS011;35840;45.982;8.890;2024-01-30T00:34:27;9.60;;;5.45;;
49948;SDS011;35840;45.982;8.890;2024-01-30T00:36:54;12.45;;;5.95;;
49948;SDS011;35840;45.982;8.890;2024-01-30T00:39:21;8.30;;;5.10;;
49948;SDS011;35840;45.982;8.890;2024-01-30T00:41:47;9.98;;;6.32;;
49948;SDS011;35840;45.982;8.890;2024-01-30T00:44:14;9.75;;;5.57;;
49948;SDS011;35840;45.982;8.890;2024-01-30T00:46:41;7.80;;;5.55;;
49948;SDS011;35840;45.982;8.890;2024-01-30T00:49:08;8.00;;;5.60;;
49948;SDS011;35840;45.982;8.890;2024-01-30T00:51:35;10.43;;;5.65;;
49948;SDS011;35840;45.982;8.890;2024-01-30T00:54:03;10.50;;;6.20;;
49948;SDS011;35840;45.982;8.890;2024-01-30T00:56:29;10.23;;;6.05;;
49948;SDS011;35840;45.982;8.890;2024-01-30T00:58:57;9.73;;;5.57;;
49948;SDS011;35840;45.982;8.890;2024-01-30T01:01:24;12.70;;;6.72;;
49948;SDS011;35840;45.982;8.890;2024-01-30T01:03:51;10.38;;;5.97;;
49948;SDS011;35840;45.982;8.890;2024-01-30T01:06:17;11.48;;;6.07;;
49948;SDS011;35840;45.982;8.890;2024-01-30T01:08:44;8.85;;;5.32;;
49948;SDS011;35840;45.982;8.890;2024-01-30T01:11:11;7.90;;;4.55;;
49948;SDS011;35840;45.982;8.890;2024-01-30T01:13:38;9.15;;;5.90;;
49948;SDS011;35840;45.982;8.890;2024-01-30T01:16:05;8.25;;;5.40;;
49948;SDS011;35840;45.982;8.890;2024-01-30T01:18:32;9.32;;;5.03;;
49948;SDS011;35840;45.982;8.890;2024-01-30T01:20:59;12.57;;;5.55;;
49948;SDS011;35840;45.982;8.890;2024-01-30T01:23:26;7.75;;;5.25;;
49948;SDS011;35840;45.982;8.890;2024-01-30T01:25:53;9.07;;;5.07;;
49948;SDS011;35840;45.982;8.890;2024-01-30T01:28:23;7.03;;;5.10;;
49948;SDS011;35840;45.982;8.890;2024-01-30T01:30:50;6.95;;;4.85;;
49948;SDS011;35840;45.982;8.890;2024-01-30T01:33:17;8.82;;;4.68;;
49948;SDS011;35840;45.982;8.890;2024-01-30T01:35:44;10.45;;;4.78;;
49948;SDS011;35840;45.982;8.890;2024-01-30T01:38:11;7.15;;;4.68;;
49948;SDS011;35840;45.982;8.890;2024-01-30T01:40:38;8.95;;;5.10;;
49948;SDS011;35840;45.982;8.890;2024-01-30T01:43:06;7.63;;;4.95;;
49948;SDS011;35840;45.982;8.890;2024-01-30T01:45:33;7.82;;;4.57;;
49948;SDS011;35840;45.982;8.890;2024-01-30T01:47:59;12.45;;;5.82;;
49948;SDS011;35840;45.982;8.890;2024-01-30T01:50:27;11.25;;;5.40;;
49948;SDS011;35840;45.982;8.890;2024-01-30T01:52:54;10.90;;;6.07;;
49948;SDS011;35840;45.982;8.890;2024-01-30T01:55:22;9.57;;;5.53;;
49948;SDS011;35840;45.982;8.890;2024-01-30T01:57:51;12.50;;;6.63;;
49948;SDS011;35840;45.982;8.890;2024-01-30T02:00:19;11.25;;;6.65;;
49948;SDS011;35840;45.982;8.890;2024-01-30T02:02:47;10.75;;;5.95;;
49948;SDS011;35840;45.982;8.890;2024-01-30T02:05:15;9.43;;;5.20;;
49948;SDS011;35840;45.982;8.890;2024-01-30T02:07:42;8.93;;;5.88;;
49948;SDS011;35840;45.982;8.890;2024-01-30T02:10:10;9.75;;;5.93;;
49948;SDS011;35840;45.982;8.890;2024-01-30T02:12:37;9.27;;;5.15;;
49948;SDS011;35840;45.982;8.890;2024-01-30T02:15:05;10.73;;;6.45;;
49948;SDS011;35840;45.982;8.890;2024-01-30T02:17:33;11.00;;;6.18;;
49948;SDS011;35840;45.982;8.890;2024-01-30T02:20:01;11.10;;;6.20;;
49948;SDS011;35840;45.982;8.890;2024-01-30T02:22:29;9.35;;;5.45;;
49948;SDS011;35840;45.982;8.890;2024-01-30T02:24:56;8.55;;;5.30;;
49948;SDS011;35840;45.982;8.890;2024-01-30T02:27:23;9.15;;;5.80;;
49948;SDS011;35840;45.982;8.890;2024-01-30T02:29:49;8.70;;;5.93;;
49948;SDS011;35840;45.982;8.890;2024-01-30T02:32:16;7.90;;;5.82;;
49948;SDS011;35840;45.982;8.890;2024-01-30T02:34:43;9.52;;;5.35;;
49948;SDS011;35840;45.982;8.890;2024-01-30T02:37:10;8.68;;;5.38;;
49948;SDS011;35840;45.982;8.890;2024-01-30T02:39:37;10.23;;;5.43;;
49948;SDS011;35840;45.982;8.890;2024-01-30T02:42:04;8.63;;;5.18;;
49948;SDS011;35840;45.982;8.890;2024-01-30T02:44:31;9.05;;;5.15;;
49948;SDS011;35840;45.982;8.890;2024-01-30T02:46:59;9.00;;;5.60;;
49948;SDS011;35840;45.982;8.890;2024-01-30T02:49:25;11.73;;;6.63;;
49948;SDS011;35840;45.982;8.890;2024-01-30T02:51:53;9.73;;;5.40;;
49948;SDS011;35840;45.982;8.890;2024-01-30T02:54:20;7.35;;;5.22;;
49948;SDS011;35840;45.982;8.890;2024-01-30T02:56:47;7.88;;;4.85;;
49948;SDS011;35840;45.982;8.890;2024-01-30T02:59:14;10.90;;;5.60;;
49948;SDS011;35840;45.982;8.890;2024-01-30T03:01:44;8.82;;;5.35;;
49948;SDS011;35840;45.982;8.890;2024-01-30T03:04:13;7.82;;;4.40;;
49948;SDS011;35840;45.982;8.890;2024-01-30T03:06:44;8.88;;;5.43;;
49948;SDS011;35840;45.982;8.890;2024-01-30T03:09:12;8.52;;;4.70;;
49948;SDS011;35840;45.982;8.890;2024-01-30T03:11:40;10.35;;;4.72;;
49948;SDS011;35840;45.982;8.890;2024-01-30T03:14:06;8.60;;;5.40;;
49948;SDS011;35840;45.982;8.890;2024-01-30T03:16:34;7.85;;;4.85;;
49948;SDS011;35840;45.982;8.890;2024-01-30T03:19:01;8.57;;;4.95;;
49948;SDS011;35840;45.982;8.890;2024-01-30T03:21:30;10.15;;;5.32;;
49948;SDS011;35840;45.982;8.890;2024-01-30T03:23:57;7.97;;;4.55;;
49948;SDS011;35840;45.982;8.890;2024-01-30T03:26:23;8.55;;;5.13;;
49948;SDS011;35840;45.982;8.890;2024-01-30T03:28:50;8.25;;;5.95;;
49948;SDS011;35840;45.982;8.890;2024-01-30T03:31:17;9.77;;;5.32;;
49948;SDS011;35840;45.982;8.890;2024-01-30T03:33:45;11.63;;;5.35;;
49948;SDS011;35840;45.982;8.890;2024-01-30T03:36:11;9.52;;;5.50;;
49948;SDS011;35840;45.982;8.890;2024-01-30T03:38:38;8.20;;;4.53;;
49948;SDS011;35840;45.982;8.890;2024-01-30T03:41:07;7.28;;;4.30;;
49948;SDS011;35840;45.982;8.890;2024-01-30T03:43:37;6.60;;;4.40;;
49948;SDS011;35840;45.982;8.890;2024-01-30T03:46:04;7.68;;;4.35;;
49948;SDS011;35840;45.982;8.890;2024-01-30T03:48:31;8.52;;;4.32;;
49948;SDS011;35840;45.982;8.890;2024-01-30T03:50:57;8.50;;;4.47;;
49948;SDS011;35840;45.982;8.890;2024-01-30T03:53:24;7.07;;;4.30;;
49948;SDS011;35840;45.982;8.890;2024-01-30T03:55:51;7.88;;;4.28;;
49948;SDS011;35840;45.982;8.890;2024-01-30T03:58:18;7.80;;;4.25;;
49948;SDS011;35840;45.982;8.890;2024-01-30T04:00:45;6.47;;;4.00;;
49948;SDS011;35840;45.982;8.890;2024-01-30T04:03:12;6.43;;;3.60;;
49948;SDS011;35840;45.982;8.890;2024-01-30T04:05:41;6.82;;;3.95;;
49948;SDS011;35840;45.982;8.890;2024-01-30T04:08:08;6.30;;;3.88;;
49948;SDS011;35840;45.982;8.890;2024-01-30T04:10:35;5.70;;;3.53;;
49948;SDS011;35840;45.982;8.890;2024-01-30T04:13:02;7.68;;;4.30;;
49948;SDS011;35840;45.982;8.890;2024-01-30T04:15:29;8.60;;;4.35;;
49948;SDS011;35840;45.982;8.890;2024-01-30T04:17:59;6.88;;;4.57;;
49948;SDS011;35840;45.982;8.890;2024-01-30T04:20:26;6.88;;;4.28;;
49948;SDS011;35840;45.982;8.890;2024-01-30T04:22:53;5.82;;;3.72;;
49948;SDS011;35840;45.982;8.890;2024-01-30T04:25:20;6.97;;;4.32;;
49948;SDS011;35840;45.982;8.890;2024-01-30T04:27:47;9.35;;;4.97;;
49948;SDS011;35840;45.982;8.890;2024-01-30T04:30:14;7.18;;;4.78;;
49948;SDS011;35840;45.982;8.890;2024-01-30T04:32:41;8.38;;;5.55;;
49948;SDS011;35840;45.982;8.890;2024-01-30T04:35:08;9.80;;;4.35;;
49948;SDS011;35840;45.982;8.890;2024-01-30T04:37:38;7.20;;;4.55;;
49948;SDS011;35840;45.982;8.890;2024-01-30T04:40:05;9.55;;;5.35;;
49948;SDS011;35840;45.982;8.890;2024-01-30T04:42:33;7.40;;;4.95;;
49948;SDS011;35840;45.982;8.890;2024-01-30T04:44:59;8.73;;;4.47;;
49948;SDS011;35840;45.982;8.890;2024-01-30T04:47:26;8.27;;;4.38;;
49948;SDS011;35840;45.982;8.890;2024-01-30T04:49:53;8.00;;;4.70;;
49948;SDS011;35840;45.982;8.890;2024-01-30T04:52:20;6.68;;;4.28;;
49948;SDS011;35840;45.982;8.890;2024-01-30T04:54:47;6.45;;;4.10;;
49948;SDS011;35840;45.982;8.890;2024-01-30T04:57:14;8.25;;;3.88;;
49948;SDS011;35840;45.982;8.890;2024-01-30T04:59:41;5.82;;;3.72;;
49948;SDS011;35840;45.982;8.890;2024-01-30T05:02:07;7.63;;;4.25;;
49948;SDS011;35840;45.982;8.890;2024-01-30T05:04:35;7.13;;;4.25;;
49948;SDS011;35840;45.982;8.890;2024-01-30T05:07:02;9.52;;;5.22;;
49948;SDS011;35840;45.982;8.890;2024-01-30T05:09:29;5.72;;;4.07;;
49948;SDS011;35840;45.982;8.890;2024-01-30T05:11:56;4.45;;;3.33;;
49948;SDS011;35840;45.982;8.890;2024-01-30T05:14:24;4.63;;;3.75;;
49948;SDS011;35840;45.982;8.890;2024-01-30T05:16:50;5.75;;;3.88;;
49948;SDS011;35840;45.982;8.890;2024-01-30T05:19:17;7.47;;;3.83;;
49948;SDS011;35840;45.982;8.890;2024-01-30T05:21:44;7.47;;;4.00;;
49948;SDS011;35840;45.982;8.890;2024-01-30T05:24:11;6.20;;;3.90;;
49948;SDS011;35840;45.982;8.890;2024-01-30T05:26:39;7.65;;;3.53;;
49948;SDS011;35840;45.982;8.890;2024-01-30T05:29:06;5.45;;;3.65;;
49948;SDS011;35840;45.982;8.890;2024-01-30T05:31:33;6.90;;;3.75;;
49948;SDS011;35840;45.982;8.890;2024-01-30T05:34:01;7.80;;;4.40;;
49948;SDS011;35840;45.982;8.890;2024-01-30T05:36:28;5.88;;;3.63;;
49948;SDS011;35840;45.982;8.890;2024-01-30T05:38:55;6.22;;;3.75;;
49948;SDS011;35840;45.982;8.890;2024-01-30T05:41:22;7.95;;;3.97;;
49948;SDS011;35840;45.982;8.890;2024-01-30T05:43:49;6.07;;;4.07;;
49948;SDS011;35840;45.982;8.890;2024-01-30T05:46:17;7.43;;;3.72;;
49948;SDS011;35840;45.982;8.890;2024-01-30T05:48:47;7.32;;;4.30;;
49948;SDS011;35840;45.982;8.890;2024-01-30T05:51:14;6.75;;;3.75;;
49948;SDS011;35840;45.982;8.890;2024-01-30T05:53:41;7.72;;;3.65;;
49948;SDS011;35840;45.982;8.890;2024-01-30T05:56:08;5.07;;;3.60;;
49948;SDS011;35840;45.982;8.890;2024-01-30T05:58:35;6.80;;;4.03;;
49948;SDS011;35840;45.982;8.890;2024-01-30T06:01:07;5.72;;;3.78;;
49948;SDS011;35840;45.982;8.890;2024-01-30T06:03:35;6.85;;;4.28;;
49948;SDS011;35840;45.982;8.890;2024-01-30T06:06:02;6.95;;;3.92;;
49948;SDS011;35840;45.982;8.890;2024-01-30T06:08:29;7.30;;;4.45;;
49948;SDS011;35840;45.982;8.890;2024-01-30T06:10:56;7.30;;;4.00;;
49948;SDS011;35840;45.982;8.890;2024-01-30T06:13:23;6.43;;;4.25;;
49948;SDS011;35840;45.982;8.890;2024-01-30T06:15:50;7.75;;;4.85;;
49948;SDS011;35840;45.982;8.890;2024-01-30T06:18:17;7.93;;;4.10;;
49948;SDS011;35840;45.982;8.890;2024-01-30T06:20:44;5.90;;;4.18;;
49948;SDS011;35840;45.982;8.890;2024-01-30T06:23:11;7.40;;;3.90;;
49948;SDS011;35840;45.982;8.890;2024-01-30T06:25:39;7.03;;;4.68;;
49948;SDS011;35840;45.982;8.890;2024-01-30T06:28:06;9.80;;;4.90;;
49948;SDS011;35840;45.982;8.890;2024-01-30T06:30:32;7.88;;;4.03;;
49948;SDS011;35840;45.982;8.890;2024-01-30T06:32:59;7.25;;;4.15;;
49948;SDS011;35840;45.982;8.890;2024-01-30T06:35:26;8.95;;;4.68;;
49948;SDS011;35840;45.982;8.890;2024-01-30T06:37:55;9.13;;;5.00;;
49948;SDS011;35840;45.982;8.890;2024-01-30T06:40:22;8.45;;;4.22;;
49948;SDS011;35840;45.982;8.890;2024-01-30T06:42:49;7.78;;;4.28;;
49948;SDS011;35840;45.982;8.890;2024-01-30T06:45:16;7.32;;;4.35;;
49948;SDS011;35840;45.982;8.890;2024-01-30T06:47:43;7.20;;;4.40;;
49948;SDS011;35840;45.982;8.890;2024-01-30T06:50:10;9.18;;;4.45;;
49948;SDS011;35840;45.982;8.890;2024-01-30T06:52:37;6.57;;;4.28;;
49948;SDS011;35840;45.982;8.890;2024-01-30T06:55:03;7.45;;;4.65;;
49948;SDS011;35840;45.982;8.890;2024-01-30T06:57:31;7.18;;;4.05;;
49948;SDS011;35840;45.982;8.890;2024-01-30T06:59:58;8.90;;;4.28;;
49948;SDS011;35840;45.982;8.890;2024-01-30T07:02:25;7.15;;;4.45;;
49948;SDS011;35840;45.982;8.890;2024-01-30T07:04:51;6.63;;;3.90;;
49948;SDS011;35840;45.982;8.890;2024-01-30T07:07:18;8.23;;;4.40;;
49948;SDS011;35840;45.982;8.890;2024-01-30T07:09:46;5.85;;;3.85;;
49948;SDS011;35840;45.982;8.890;2024-01-30T07:12:14;8.32;;;4.53;;
49948;SDS011;35840;45.982;8.890;2024-01-30T07:14:40;5.05;;;3.33;;
49948;SDS011;35840;45.982;8.890;2024-01-30T07:17:07;6.22;;;3.67;;
49948;SDS011;35840;45.982;8.890;2024-01-30T07:19:34;6.40;;;3.67;;
49948;SDS011;35840;45.982;8.890;2024-01-30T07:22:01;9.27;;;4.22;;
49948;SDS011;35840;45.982;8.890;2024-01-30T07:24:28;5.63;;;3.40;;
49948;SDS011;35840;45.982;8.890;2024-01-30T07:26:55;8.13;;;4.22;;
49948;SDS011;35840;45.982;8.890;2024-01-30T07:29:21;12.13;;;3.72;;
49948;SDS011;35840;45.982;8.890;2024-01-30T07:31:48;7.07;;;4.18;;
49948;SDS011;35840;45.982;8.890;2024-01-30T07:34:15;6.22;;;3.65;;
49948;SDS011;35840;45.982;8.890;2024-01-30T07:36:42;6.85;;;3.55;;
49948;SDS011;35840;45.982;8.890;2024-01-30T07:39:09;5.88;;;3.85;;
49948;SDS011;35840;45.982;8.890;2024-01-30T07:41:36;22.80;;;5.15;;
49948;SDS011;35840;45.982;8.890;2024-01-30T07:44:03;6.50;;;3.60;;
49948;SDS011;35840;45.982;8.890;2024-01-30T07:46:30;7.18;;;4.30;;
49948;SDS011;35840;45.982;8.890;2024-01-30T07:48:57;7.57;;;3.40;;
49948;SDS011;35840;45.982;8.890;2024-01-30T07:51:25;5.22;;;3.35;;
49948;SDS011;35840;45.982;8.890;2024-01-30T07:53:51;8.00;;;4.18;;
49948;SDS011;35840;45.982;8.890;2024-01-30T07:56:18;9.65;;;4.35;;
49948;SDS011;35840;45.982;8.890;2024-01-30T07:58:45;7.13;;;3.92;;
49948;SDS011;35840;45.982;8.890;2024-01-30T08:01:12;5.55;;;3.78;;
49948;SDS011;35840;45.982;8.890;2024-01-30T08:03:39;8.10;;;4.47;;
49948;SDS011;35840;45.982;8.890;2024-01-30T08:06:08;6.43;;;4.13;;
49948;SDS011;35840;45.982;8.890;2024-01-30T08:08:35;8.85;;;4.30;;
49948;SDS011;35840;45.982;8.890;2024-01-30T08:11:04;6.97;;;3.90;;
49948;SDS011;35840;45.982;8.890;2024-01-30T08:13:31;6.82;;;3.92;;
49948;SDS011;35840;45.982;8.890;2024-01-30T08:15:58;8.88;;;4.93;;
49948;SDS011;35840;45.982;8.890;2024-01-30T08:18:25;8.07;;;4.95;;
49948;SDS011;35840;45.982;8.890;2024-01-30T08:20:52;8.63;;;4.70;;
49948;SDS011;35840;45.982;8.890;2024-01-30T08:23:19;7.88;;;4.22;;
49948;SDS011;35840;45.982;8.890;2024-01-30T08:25:46;9.40;;;5.30;;
49948;SDS011;35840;45.982;8.890;2024-01-30T08:28:13;9.63;;;4.60;;
49948;SDS011;35840;45.982;8.890;2024-01-30T08:30:42;7.97;;;4.72;;
49948;SDS011;35840;45.982;8.890;2024-01-30T08:33:09;9.40;;;5.28;;
49948;SDS011;35840;45.982;8.890;2024-01-30T08:35:36;8.45;;;4.90;;
49948;SDS011;35840;45.982;8.890;2024-01-30T08:38:03;8.88;;;5.38;;
49948;SDS011;35840;45.982;8.890;2024-01-30T08:40:30;8.25;;;5.57;;
49948;SDS011;35840;45.982;8.890;2024-01-30T08:42:57;11.27;;;5.13;;
49948;SDS011;35840;45.982;8.890;2024-01-30T08:45:24;12.73;;;5.68;;
49948;SDS011;35840;45.982;8.890;2024-01-30T08:47:51;6.85;;;4.70;;
49948;SDS011;35840;45.982;8.890;2024-01-30T08:50:18;10.00;;;4.55;;
49948;SDS011;35840;45.982;8.890;2024-01-30T08:52:45;10.77;;;5.38;;
49948;SDS011;35840;45.982;8.890;2024-01-30T08:55:14;11.25;;;5.00;;
49948;SDS011;35840;45.982;8.890;2024-01-30T08:57:41;11.80;;;4.85;;
49948;SDS011;35840;45.982;8.890;2024-01-30T09:00:08;12.48;;;5.90;;
49948;SDS011;35840;45.982;8.890;2024-01-30T09:02:36;8.63;;;5.80;;
49948;SDS011;35840;45.982;8.890;2024-01-30T09:05:03;9.80;;;5.80;;
49948;SDS011;35840;45.982;8.890;2024-01-30T09:07:30;11.70;;;6.00;;
49948;SDS011;35840;45.982;8.890;2024-01-30T09:09:57;11.30;;;6.40;;
49948;SDS011;35840;45.982;8.890;2024-01-30T09:12:24;13.18;;;7.30;;
49948;SDS011;35840;45.982;8.890;2024-01-30T09:14:51;12.15;;;7.35;;
49948;SDS011;35840;45.982;8.890;2024-01-30T09:17:18;13.07;;;7.90;;
49948;SDS011;35840;45.982;8.890;2024-01-30T09:19:45;11.77;;;7.63;;
49948;SDS011;35840;45.982;8.890;2024-01-30T09:22:12;13.38;;;7.55;;
49948;SDS011;35840;45.982;8.890;2024-01-30T09:24:40;17.40;;;8.65;;
49948;SDS011;35840;45.982;8.890;2024-01-30T09:27:06;14.15;;;7.68;;
49948;SDS011;35840;45.982;8.890;2024-01-30T09:29:33;13.32;;;8.25;;
49948;SDS011;35840;45.982;8.890;2024-01-30T09:32:03;13.38;;;7.55;;
49948;SDS011;35840;45.982;8.890;2024-01-30T09:34:32;12.20;;;8.00;;
49948;SDS011;35840;45.982;8.890;2024-01-30T09:36:59;12.15;;;6.47;;
49948;SDS011;35840;45.982;8.890;2024-01-30T09:39:26;13.00;;;6.70;;
49948;SDS011;35840;45.982;8.890;2024-01-30T09:42:16;12.40;;;7.35;;
49948;SDS011;35840;45.982;8.890;2024-01-30T09:44:51;10.25;;;6.45;;
49948;SDS011;35840;45.982;8.890;2024-01-30T09:47:18;9.32;;;6.28;;
49948;SDS011;35840;45.982;8.890;2024-01-30T09:49:46;11.57;;;6.47;;
49948;SDS011;35840;45.982;8.890;2024-01-30T09:52:14;10.30;;;5.22;;
49948;SDS011;35840;45.982;8.890;2024-01-30T09:54:41;9.73;;;5.20;;
49948;SDS011;35840;45.982;8.890;2024-01-30T09:57:10;10.63;;;5.30;;
49948;SDS011;35840;45.982;8.890;2024-01-30T09:59:38;8.32;;;5.22;;
49948;SDS011;35840;45.982;8.890;2024-01-30T10:02:05;9.35;;;4.90;;
49948;SDS011;35840;45.982;8.890;2024-01-30T10:04:33;6.63;;;4.80;;
49948;SDS011;35840;45.982;8.890;2024-01-30T10:07:01;8.55;;;4.55;;
49948;SDS011;35840;45.982;8.890;2024-01-30T10:09:31;9.13;;;4.35;;
49948;SDS011;35840;45.982;8.890;2024-01-30T10:12:00;7.55;;;4.53;;
49948;SDS011;35840;45.982;8.890;2024-01-30T10:14:27;7.47;;;4.65;;
49948;SDS011;35840;45.982;8.890;2024-01-30T10:16:55;10.60;;;5.05;;
49948;SDS011;35840;45.982;8.890;2024-01-30T10:19:22;8.05;;;4.45;;
49948;SDS011;35840;45.982;8.890;2024-01-30T10:21:49;6.22;;;4.70;;
49948;SDS011;35840;45.982;8.890;2024-01-30T10:24:16;6.15;;;4.43;;
49948;SDS011;35840;45.982;8.890;2024-01-30T10:26:44;5.38;;;4.10;;
49948;SDS011;35840;45.982;8.890;2024-01-30T10:29:10;6.53;;;3.90;;
49948;SDS011;35840;45.982;8.890;2024-01-30T10:31:37;10.07;;;4.63;;
49948;SDS011;35840;45.982;8.890;2024-01-30T10:34:04;8.95;;;4.85;;
49948;SDS011;35840;45.982;8.890;2024-01-30T10:36:46;8.35;;;4.35;;
49948;SDS011;35840;45.982;8.890;2024-01-30T10:39:17;7.85;;;5.32;;
49948;SDS011;35840;45.982;8.890;2024-01-30T10:41:44;8.82;;;5.47;;
49948;SDS011;35840;45.982;8.890;2024-01-30T10:44:12;10.57;;;6.90;;
49948;SDS011;35840;45.982;8.890;2024-01-30T10:46:45;10.73;;;5.95;;
49948;SDS011;35840;45.982;8.890;2024-01-30T10:49:21;10.35;;;5.88;;
49948;SDS011;35840;45.982;8.890;2024-01-30T10:51:49;10.90;;;6.07;;
49948;SDS011;35840;45.982;8.890;2024-01-30T10:54:18;9.88;;;5.40;;
49948;SDS011;35840;45.982;8.890;2024-01-30T10:56:46;8.30;;;5.13;;
49948;SDS011;35840;45.982;8.890;2024-01-30T10:59:15;12.15;;;5.78;;
49948;SDS011;35840;45.982;8.890;2024-01-30T11:01:42;8.57;;;4.57;;
49948;SDS011;35840;45.982;8.890;2024-01-30T11:04:09;7.22;;;5.25;;
49948;SDS011;35840;45.982;8.890;2024-01-30T11:06:43;6.20;;;4.32;;
49948;SDS011;35840;45.982;8.890;2024-01-30T11:09:11;8.82;;;5.30;;
49948;SDS011;35840;45.982;8.890;2024-01-30T11:11:51;11.38;;;6.15;;
49948;SDS011;35840;45.982;8.890;2024-01-30T11:14:26;7.93;;;4.82;;
49948;SDS011;35840;45.982;8.890;2024-01-30T11:16:58;7.95;;;4.90;;
49948;SDS011;35840;45.982;8.890;2024-01-30T11:19:26;7.78;;;5.05;;
49948;SDS011;35840;45.982;8.890;2024-01-30T11:21:54;10.23;;;5.15;;
49948;SDS011;35840;45.982;8.890;2024-01-30T11:24:24;6.75;;;4.07;;
49948;SDS011;35840;45.982;8.890;2024-01-30T11:26:57;7.80;;;4.80;;
49948;SDS011;35840;45.982;8.890;2024-01-30T11:29:28;12.23;;;5.23;;
49948;SDS011;35840;45.982;8.890;2024-01-30T11:31:58;9.25;;;5.15;;
49948;SDS011;35840;45.982;8.890;2024-01-30T11:34:25;10.32;;;4.80;;
49948;SDS011;35840;45.982;8.890;2024-01-30T11:36:56;10.00;;;4.43;;
49948;SDS011;35840;45.982;8.890;2024-01-30T11:39:31;6.63;;;4.10;;
49948;SDS011;35840;45.982;8.890;2024-01-30T11:41:58;9.70;;;5.07;;
49948;SDS011;35840;45.982;8.890;2024-01-30T11:44:26;8.50;;;5.07;;
49948;SDS011;35840;45.982;8.890;2024-01-30T11:46:53;7.38;;;4.65;;
49948;SDS011;35840;45.982;8.890;2024-01-30T11:49:20;9.90;;;4.93;;
49948;SDS011;35840;45.982;8.890;2024-01-30T11:51:47;8.07;;;4.63;;
49948;SDS011;35840;45.982;8.890;2024-01-30T11:54:15;8.05;;;4.63;;
49948;SDS011;35840;45.982;8.890;2024-01-30T11:56:43;10.15;;;4.40;;
49948;SDS011;35840;45.982;8.890;2024-01-30T11:59:10;5.55;;;4.30;;
49948;SDS011;35840;45.982;8.890;2024-01-30T12:01:36;7.75;;;4.53;;
49948;SDS011;35840;45.982;8.890;2024-01-30T12:04:04;8.65;;;5.00;;
49948;SDS011;35840;45.982;8.890;2024-01-30T12:06:36;8.52;;;4.35;;
49948;SDS011;35840;45.982;8.890;2024-01-30T12:09:03;6.47;;;3.85;;
49948;SDS011;35840;45.982;8.890;2024-01-30T12:11:30;7.93;;;4.88;;
49948;SDS011;35840;45.982;8.890;2024-01-30T12:13:57;7.60;;;4.88;;
49948;SDS011;35840;45.982;8.890;2024-01-30T12:16:25;6.88;;;4.22;;
49948;SDS011;35840;45.982;8.890;2024-01-30T12:18:59;5.85;;;3.90;;
49948;SDS011;35840;45.982;8.890;2024-01-30T12:21:28;5.97;;;4.43;;
49948;SDS011;35840;45.982;8.890;2024-01-30T12:23:56;8.45;;;4.47;;
49948;SDS011;35840;45.982;8.890;2024-01-30T12:26:24;9.15;;;4.20;;
49948;SDS011;35840;45.982;8.890;2024-01-30T12:28:55;6.35;;;4.15;;
49948;SDS011;35840;45.982;8.890;2024-01-30T12:31:25;6.45;;;4.10;;
49948;SDS011;35840;45.982;8.890;2024-01-30T12:33:54;8.60;;;4.38;;
49948;SDS011;35840;45.982;8.890;2024-01-30T12:36:25;8.75;;;4.90;;
49948;SDS011;35840;45.982;8.890;2024-01-30T12:38:52;6.90;;;4.80;;
49948;SDS011;35840;45.982;8.890;2024-01-30T12:41:19;14.02;;;4.45;;
49948;SDS011;35840;45.982;8.890;2024-01-30T12:43:46;7.10;;;5.10;;
49948;SDS011;35840;45.982;8.890;2024-01-30T12:46:16;6.40;;;4.57;;
49948;SDS011;35840;45.982;8.890;2024-01-30T12:48:44;6.55;;;4.57;;
49948;SDS011;35840;45.982;8.890;2024-01-30T12:51:11;7.55;;;4.88;;
49948;SDS011;35840;45.982;8.890;2024-01-30T12:53:38;10.35;;;4.90;;
49948;SDS011;35840;45.982;8.890;2024-01-30T12:56:05;8.30;;;4.68;;
49948;SDS011;35840;45.982;8.890;2024-01-30T12:58:32;10.60;;;5.47;;
49948;SDS011;35840;45.982;8.890;2024-01-30T13:00:59;11.38;;;5.78;;
49948;SDS011;35840;45.982;8.890;2024-01-30T13:03:26;7.65;;;4.60;;
49948;SDS011;35840;45.982;8.890;2024-01-30T13:05:53;10.35;;;5.07;;
49948;SDS011;35840;45.982;8.890;2024-01-30T13:08:20;12.05;;;6.57;;
49948;SDS011;35840;45.982;8.890;2024-01-30T13:10:47;20.27;;;6.78;;
49948;SDS011;35840;45.982;8.890;2024-01-30T13:13:15;8.15;;;5.38;;
49948;SDS011;35840;45.982;8.890;2024-01-30T13:15:47;14.48;;;7.30;;
49948;SDS011;35840;45.982;8.890;2024-01-30T13:18:14;6.63;;;4.80;;
49948;SDS011;35840;45.982;8.890;2024-01-30T13:20:42;10.73;;;5.65;;
49948;SDS011;35840;45.982;8.890;2024-01-30T13:23:08;13.25;;;4.82;;
49948;SDS011;35840;45.982;8.890;2024-01-30T13:25:36;11.18;;;5.50;;
49948;SDS011;35840;45.982;8.890;2024-01-30T13:28:03;10.10;;;6.00;;
49948;SDS011;35840;45.982;8.890;2024-01-30T13:30:30;10.75;;;6.60;;
49948;SDS011;35840;45.982;8.890;2024-01-30T13:32:57;11.20;;;6.60;;
49948;SDS011;35840;45.982;8.890;2024-01-30T13:35:25;11.27;;;6.72;;
49948;SDS011;35840;45.982;8.890;2024-01-30T13:37:52;11.70;;;7.38;;
49948;SDS011;35840;45.982;8.890;2024-01-30T13:40:19;11.98;;;6.35;;
49948;SDS011;35840;45.982;8.890;2024-01-30T13:42:46;8.65;;;5.57;;
49948;SDS011;35840;45.982;8.890;2024-01-30T13:45:14;9.10;;;5.72;;
49948;SDS011;35840;45.982;8.890;2024-01-30T13:47:41;12.43;;;6.38;;
49948;SDS011;35840;45.982;8.890;2024-01-30T13:50:08;11.20;;;7.15;;
49948;SDS011;35840;45.982;8.890;2024-01-30T13:52:36;11.93;;;6.68;;
49948;SDS011;35840;45.982;8.890;2024-01-30T13:55:10;11.48;;;6.40;;
49948;SDS011;35840;45.982;8.890;2024-01-30T13:57:37;11.15;;;6.05;;
49948;SDS011;35840;45.982;8.890;2024-01-30T14:00:05;12.85;;;7.03;;
49948;SDS011;35840;45.982;8.890;2024-01-30T14:02:38;11.02;;;6.38;;
49948;SDS011;35840;45.982;8.890;2024-01-30T14:05:05;8.60;;;5.85;;
49948;SDS011;35840;45.982;8.890;2024-01-30T14:07:33;10.13;;;5.90;;
49948;SDS011;35840;45.982;8.890;2024-01-30T14:10:00;17.42;;;7.80;;
49948;SDS011;35840;45.982;8.890;2024-01-30T14:12:29;12.25;;;6.57;;
49948;SDS011;35840;45.982;8.890;2024-01-30T14:14:56;10.85;;;6.03;;
49948;SDS011;35840;45.982;8.890;2024-01-30T14:17:23;10.95;;;6.85;;
49948;SDS011;35840;45.982;8.890;2024-01-30T14:19:50;13.48;;;7.82;;
49948;SDS011;35840;45.982;8.890;2024-01-30T14:22:17;11.77;;;7.00;;
49948;SDS011;35840;45.982;8.890;2024-01-30T14:24:44;11.88;;;6.85;;
49948;SDS011;35840;45.982;8.890;2024-01-30T14:27:11;17.73;;;7.30;;
49948;SDS011;35840;45.982;8.890;2024-01-30T14:29:39;13.85;;;7.88;;
49948;SDS011;35840;45.982;8.890;2024-01-30T14:32:05;14.32;;;7.43;;
49948;SDS011;35840;45.982;8.890;2024-01-30T14:34:32;12.10;;;7.35;;
49948;SDS011;35840;45.982;8.890;2024-01-30T14:36:59;12.95;;;8.13;;
49948;SDS011;35840;45.982;8.890;2024-01-30T14:39:27;12.82;;;6.68;;
49948;SDS011;35840;45.982;8.890;2024-01-30T14:41:53;11.63;;;7.40;;
49948;SDS011;35840;45.982;8.890;2024-01-30T14:44:20;11.77;;;6.65;;